createdAt,value
2019-05-07T00:00:43.822Z,98641.88
2019-05-07T00:03:12.445Z,98634.02
2019-05-07T00:05:39.957Z,98636.30
2019-05-07T00:08:07.439Z,98631.62
2019-05-07T00:10:35.617Z,98632.62
2019-05-07T00:13:03.104Z,98639.05
2019-05-07T00:15:32.578Z,98637.36
2019-05-07T00:18:02.975Z,98633.27
2019-05-07T00:20:29.820Z,98644.08
2019-05-07T00:22:57.312Z,98636.36
2019-05-07T00:25:24.865Z,98642.09
2019-05-07T00:27:52.458Z,98643.10
2019-05-07T00:30:22.186Z,98641.70
2019-05-07T00:32:49.263Z,98632.13
2019-05-07T00:35:18.405Z,98632.45
2019-05-07T00:37:53.235Z,98629.64
2019-05-07T00:40:32.112Z,98633.96
2019-05-07T00:43:04.121Z,98634.95
2019-05-07T00:45:50.202Z,98633.62
2019-05-07T00:48:17.691Z,98633.69
2019-05-07T00:50:46.830Z,98630.80
2019-05-07T00:53:14.340Z,98636.00
2019-05-07T00:55:42.616Z,98631.73
2019-05-07T00:58:10.112Z,98629.23
2019-05-07T01:00:37.780Z,98637.36
2019-05-07T01:03:05.272Z,98634.91
2019-05-07T01:05:32.777Z,98636.48
2019-05-07T01:08:02.383Z,98638.23
2019-05-07T01:10:29.503Z,98628.48
2019-05-07T01:12:59.283Z,98638.95
2019-05-07T01:15:31.194Z,98633.58
2019-05-07T01:17:55.435Z,98634.41
2019-05-07T01:20:22.952Z,98626.34
2019-05-07T01:22:54.159Z,98631.87
2019-05-07T01:25:21.926Z,98634.84
2019-05-07T01:27:48.996Z,98632.46
2019-05-07T01:30:16.500Z,98636.75
2019-05-07T01:32:45.628Z,98639.11
2019-05-07T01:35:24.496Z,98646.17
2019-05-07T01:37:52.493Z,98644.61
2019-05-07T01:40:20.160Z,98643.27
2019-05-07T01:42:47.652Z,98648.12
2019-05-07T01:45:15.725Z,98644.37
2019-05-07T01:47:43.221Z,98652.05
2019-05-07T01:50:13.220Z,98644.59
2019-05-07T01:52:42.585Z,98641.70
2019-05-07T01:55:09.489Z,98646.80
2019-05-07T01:57:38.249Z,98644.44
2019-05-07T02:00:08.823Z,98642.06
2019-05-07T02:02:37.961Z,98638.69
2019-05-07T02:05:07.669Z,98641.67
2019-05-07T02:07:36.796Z,98648.04
2019-05-07T02:10:12.368Z,98640.70
2019-05-07T02:12:42.494Z,98638.81
2019-05-07T02:15:11.848Z,98650.06
2019-05-07T02:17:39.154Z,98656.53
2019-05-07T02:20:06.662Z,98656.95
2019-05-07T02:22:34.156Z,98652.55
2019-05-07T02:25:03.311Z,98652.89
2019-05-07T02:27:32.825Z,98653.79
2019-05-07T02:30:03.644Z,98657.80
2019-05-07T02:32:29.483Z,98657.89
2019-05-07T02:34:56.972Z,98662.65
2019-05-07T02:37:30.897Z,98656.75
2019-05-07T02:40:14.186Z,98659.91
2019-05-07T02:42:44.243Z,98660.81
2019-05-07T02:45:25.170Z,98653.08
2019-05-07T02:47:52.679Z,98657.22
2019-05-07T02:50:27.590Z,98663.97
2019-05-07T02:53:05.498Z,98657.57
2019-05-07T02:55:43.798Z,98657.48
2019-05-07T02:58:13.778Z,98655.03
2019-05-07T03:00:43.451Z,98655.55
2019-05-07T03:03:09.885Z,98660.39
2019-05-07T03:05:37.380Z,98657.74
2019-05-07T03:08:04.888Z,98653.19
2019-05-07T03:10:34.055Z,98660.95
2019-05-07T03:13:03.072Z,98657.98
2019-05-07T03:15:33.210Z,98662.55
2019-05-07T03:18:03.062Z,98665.09
2019-05-07T03:20:33.439Z,98661.47
2019-05-07T03:23:03.148Z,98669.66
2019-05-07T03:25:33.918Z,98666.80
2019-05-07T03:28:04.153Z,98663.00
2019-05-07T03:30:36.087Z,98664.10
2019-05-07T03:33:26.209Z,98666.87
2019-05-07T03:35:56.398Z,98666.87
2019-05-07T03:38:22.827Z,98665.60
2019-05-07T03:40:53.205Z,98665.33
2019-05-07T03:43:22.653Z,98669.07
2019-05-07T03:46:03.633Z,98669.75
2019-05-07T03:48:33.741Z,98671.11
2019-05-07T03:51:03.643Z,98664.64
2019-05-07T03:53:33.536Z,98666.87
2019-05-07T03:55:59.670Z,98665.99
2019-05-07T03:58:27.950Z,98670.17
2019-05-07T04:00:55.441Z,98671.70
2019-05-07T04:03:24.529Z,98673.53
2019-05-07T04:05:53.127Z,98676.13
2019-05-07T04:08:23.658Z,98677.12
2019-05-07T04:10:53.828Z,98679.80
2019-05-07T04:13:23.530Z,98679.48
2019-05-07T04:15:52.488Z,98681.34
2019-05-07T04:18:19.381Z,98670.22
2019-05-07T04:20:46.876Z,98674.67
2019-05-07T04:23:14.639Z,98678.46
2019-05-07T04:25:43.757Z,98677.91
2019-05-07T04:28:15.877Z,98672.52
2019-05-07T04:30:43.937Z,98675.61
2019-05-07T04:33:13.268Z,98677.94
2019-05-07T04:35:57.547Z,98676.72
2019-05-07T04:38:25.044Z,98680.62
2019-05-07T04:40:53.813Z,98677.70
2019-05-07T04:43:23.233Z,98674.45
2019-05-07T04:45:53.721Z,98679.80
2019-05-07T04:48:23.037Z,98683.53
2019-05-07T04:50:54.053Z,98678.94
2019-05-07T04:53:23.395Z,98677.70
2019-05-07T04:55:49.640Z,98675.78
2019-05-07T04:58:17.186Z,98678.73
2019-05-07T05:00:44.678Z,98684.64
2019-05-07T05:03:16.517Z,98684.43
2019-05-07T05:05:44.014Z,98683.11
2019-05-07T05:08:13.443Z,98682.37
2019-05-07T05:10:43.189Z,98693.81
2019-05-07T05:13:12.659Z,98688.59
2019-05-07T05:15:39.172Z,98685.45
2019-05-07T05:18:07.328Z,98684.34
2019-05-07T05:20:36.479Z,98687.53
2019-05-07T05:23:17.672Z,98688.75
2019-05-07T05:25:45.646Z,98691.62
2019-05-07T05:28:13.505Z,98695.47
2019-05-07T05:30:42.726Z,98690.66
2019-05-07T05:33:12.055Z,98692.63
2019-05-07T05:35:39.552Z,98697.68
2019-05-07T05:38:07.051Z,98695.54
2019-05-07T05:40:34.583Z,98697.63
2019-05-07T05:43:06.621Z,98696.42
2019-05-07T05:45:35.764Z,98694.22
2019-05-07T05:48:07.481Z,98695.89
2019-05-07T05:50:35.092Z,98691.29
2019-05-07T05:53:21.881Z,98691.45
2019-05-07T05:55:50.168Z,98691.50
2019-05-07T05:58:24.115Z,98694.55
2019-05-07T06:00:56.611Z,98691.57
2019-05-07T06:03:32.269Z,98698.06
2019-05-07T06:06:02.035Z,98695.22
2019-05-07T06:08:32.488Z,98695.03
2019-05-07T06:11:11.898Z,98686.08
2019-05-07T06:13:43.796Z,98685.06
2019-05-07T06:16:18.826Z,98688.96
2019-05-07T06:18:53.840Z,98690.95
2019-05-07T06:21:24.104Z,98693.84
2019-05-07T06:23:54.261Z,98689.73
2019-05-07T06:26:22.764Z,98700.75
2019-05-07T06:28:51.926Z,98704.81
2019-05-07T06:31:19.577Z,98715.76
2019-05-07T06:33:47.067Z,98704.48
2019-05-07T06:36:14.585Z,98711.88
2019-05-07T06:38:43.721Z,98705.48
2019-05-07T06:41:18.796Z,98706.45
2019-05-07T06:43:52.109Z,98717.50
2019-05-07T06:46:19.668Z,98713.82
2019-05-07T06:48:47.263Z,98715.42
2019-05-07T06:51:17.546Z,98713.74
2019-05-07T06:53:44.744Z,98704.98
2019-05-07T06:56:12.350Z,98708.86
2019-05-07T06:58:47.495Z,98713.89
2019-05-07T07:01:19.466Z,98716.96
2019-05-07T07:03:55.283Z,98717.05
2019-05-07T07:06:24.432Z,98719.13
2019-05-07T07:09:05.689Z,98711.97
2019-05-07T07:11:37.859Z,98712.10
2019-05-07T07:14:05.457Z,98713.45
2019-05-07T07:16:32.964Z,98709.43
2019-05-07T07:19:00.461Z,98704.42
2019-05-07T07:21:27.973Z,98703.41
2019-05-07T07:23:55.455Z,98702.30
2019-05-07T07:26:23.244Z,98704.09
2019-05-07T07:28:52.485Z,98703.13
2019-05-07T07:31:27.569Z,98704.32
2019-05-07T07:33:56.740Z,98705.44
2019-05-07T07:36:25.891Z,98698.65
2019-05-07T07:38:53.375Z,98707.09
2019-05-07T07:41:28.779Z,98700.36
2019-05-07T07:43:56.272Z,98701.73
2019-05-07T07:46:23.780Z,98700.08
2019-05-07T07:49:04.345Z,98697.94
2019-05-07T07:51:36.703Z,98701.77
2019-05-07T07:53:51.920Z,98700.73
2019-05-07T07:56:29.336Z,98698.19
2019-05-07T07:59:13.517Z,98696.28
2019-05-07T08:01:45.869Z,98706.48
2019-05-07T08:04:13.638Z,98704.50
2019-05-07T08:06:41.976Z,98702.91
2019-05-07T08:09:10.067Z,98697.68
2019-05-07T08:11:37.586Z,98695.84
2019-05-07T08:14:06.728Z,98699.88
2019-05-07T08:16:34.224Z,98695.00
2019-05-07T08:19:02.934Z,98701.78
2019-05-07T08:21:33.040Z,98698.52
2019-05-07T08:23:59.820Z,98702.50
2019-05-07T08:26:27.316Z,98695.48
2019-05-07T08:28:54.848Z,98687.98
2019-05-07T08:31:42.480Z,98683.41
2019-05-07T08:34:26.111Z,98687.45
2019-05-07T08:36:53.856Z,98678.36
2019-05-07T08:39:22.298Z,98677.34
2019-05-07T08:41:52.650Z,98677.28
2019-05-07T08:44:22.293Z,98681.39
2019-05-07T08:46:52.093Z,98679.92
2019-05-07T08:49:33.483Z,98677.59
2019-05-07T08:51:51.945Z,98678.47
2019-05-07T08:54:19.640Z,98678.95
2019-05-07T08:56:47.144Z,98671.73
2019-05-07T08:59:14.637Z,98673.86
2019-05-07T09:01:43.303Z,98676.63
2019-05-07T09:04:13.265Z,98678.66
2019-05-07T09:06:40.316Z,98673.02
2019-05-07T09:09:09.003Z,98673.25
2019-05-07T09:11:36.557Z,98674.32
2019-05-07T09:14:04.054Z,98669.92
2019-05-07T09:16:32.006Z,98674.83
2019-05-07T09:19:02.042Z,98670.30
2019-05-07T09:21:32.154Z,98682.59
2019-05-07T09:23:59.820Z,98670.45
2019-05-07T09:26:37.588Z,98676.73
2019-05-07T09:29:06.736Z,98673.09
2019-05-07T09:31:52.538Z,98671.38
2019-05-07T09:34:27.940Z,98674.55
2019-05-07T09:36:57.851Z,98662.54
2019-05-07T09:39:26.626Z,98671.56
2019-05-07T09:41:54.124Z,98665.34
2019-05-07T09:44:22.204Z,98664.91
2019-05-07T09:46:51.947Z,98661.47
2019-05-07T09:49:19.188Z,98657.73
2019-05-07T09:51:46.679Z,98662.14
2019-05-07T09:54:14.181Z,98658.86
2019-05-07T09:56:42.667Z,98656.89
2019-05-07T09:59:12.559Z,98657.09
2019-05-07T10:01:40.200Z,98657.55
2019-05-07T10:04:08.504Z,98654.47
2019-05-07T10:06:36.819Z,98651.97
2019-05-07T10:09:05.469Z,98646.28
2019-05-07T10:11:49.637Z,98647.38
2019-05-07T10:14:17.235Z,98641.30
2019-05-07T10:16:58.653Z,98644.16
2019-05-07T10:19:26.160Z,98638.47
2019-05-07T10:21:53.653Z,98634.61
2019-05-07T10:24:22.251Z,98634.78
2019-05-07T10:26:49.865Z,98634.70
2019-05-07T10:29:17.372Z,98630.27
2019-05-07T10:31:44.868Z,98638.07
2019-05-07T10:34:13.060Z,98628.56
2019-05-07T10:36:42.162Z,98631.98
2019-05-07T10:39:09.847Z,98625.82
2019-05-07T10:41:38.116Z,98624.55
2019-05-07T10:44:05.624Z,98623.66
2019-05-07T10:46:34.764Z,98622.17
2019-05-07T10:49:06.839Z,98625.99
2019-05-07T10:51:34.332Z,98622.37
2019-05-07T10:54:02.266Z,98623.55
2019-05-07T10:56:29.917Z,98620.61
2019-05-07T10:58:57.420Z,98623.03
2019-05-07T11:01:26.556Z,98621.02
2019-05-07T11:03:54.057Z,98621.27
2019-05-07T11:06:22.093Z,98623.05
2019-05-07T11:08:51.403Z,98614.88
2019-05-07T11:11:18.959Z,98614.67
2019-05-07T11:13:47.145Z,98614.87
2019-05-07T11:16:16.280Z,98618.02
2019-05-07T11:18:45.423Z,98612.92
2019-05-07T11:21:12.911Z,98607.69
2019-05-07T11:23:41.875Z,98610.05
2019-05-07T11:26:11.796Z,98597.81
2019-05-07T11:28:40.184Z,98595.62
2019-05-07T11:31:08.139Z,98595.36
2019-05-07T11:33:35.648Z,98591.48
2019-05-07T11:36:03.913Z,98593.71
2019-05-07T11:38:33.420Z,98583.86
2019-05-07T11:41:02.352Z,98584.81
2019-05-07T11:43:47.025Z,98583.86
2019-05-07T11:46:25.253Z,98577.72
2019-05-07T11:48:57.107Z,98571.16
2019-05-07T11:51:33.415Z,98567.15
2019-05-07T11:54:13.701Z,98565.30
2019-05-07T11:56:42.388Z,98577.59
2019-05-07T11:59:10.030Z,98559.56
2019-05-07T12:01:44.520Z,98559.42
2019-05-07T12:04:08.394Z,98558.39
2019-05-07T12:06:35.895Z,98550.44
2019-05-07T12:09:04.736Z,98551.81
2019-05-07T12:11:32.339Z,98562.19
2019-05-07T12:14:01.883Z,98558.12
2019-05-07T12:16:29.156Z,98548.53
2019-05-07T12:18:56.648Z,98544.27
2019-05-07T12:21:24.404Z,98545.32
2019-05-07T12:23:52.504Z,98544.59
2019-05-07T12:26:22.155Z,98542.56
2019-05-07T12:28:49.349Z,98531.88
2019-05-07T12:31:34.769Z,98526.05
2019-05-07T12:34:03.897Z,98530.86
2019-05-07T12:36:32.210Z,98534.73
2019-05-07T12:38:59.744Z,98534.96
2019-05-07T12:41:33.128Z,98530.26
2019-05-07T12:44:02.338Z,98520.29
2019-05-07T12:46:29.379Z,98523.34
2019-05-07T12:48:56.871Z,98517.48
2019-05-07T12:51:33.485Z,98514.00
2019-05-07T12:53:55.248Z,98515.50
2019-05-07T12:56:22.747Z,98516.00
2019-05-07T12:58:51.802Z,98507.34
2019-05-07T13:01:23.857Z,98502.51
2019-05-07T13:04:07.987Z,98504.16
2019-05-07T13:06:37.132Z,98496.23
2019-05-07T13:09:05.707Z,98490.95
2019-05-07T13:11:33.215Z,98494.65
2019-05-07T13:14:02.119Z,98484.21
2019-05-07T13:16:29.734Z,98486.87
2019-05-07T13:18:57.212Z,98488.20
2019-05-07T13:21:25.267Z,98484.02
2019-05-07T13:23:52.769Z,98488.59
2019-05-07T13:26:20.277Z,98485.73
2019-05-07T13:28:47.773Z,98471.14
2019-05-07T13:31:16.130Z,98464.56
2019-05-07T13:33:43.623Z,98468.61
2019-05-07T13:36:12.319Z,98473.52
2019-05-07T13:38:44.548Z,98467.86
2019-05-07T13:41:13.705Z,98466.49
2019-05-07T13:44:02.886Z,98457.73
2019-05-07T13:46:32.095Z,98458.89
2019-05-07T13:49:01.958Z,98462.97
2019-05-07T13:51:31.568Z,98455.69
2019-05-07T13:53:58.616Z,98459.88
2019-05-07T13:56:26.122Z,98446.80
2019-05-07T13:58:54.580Z,98458.33
2019-05-07T14:01:42.296Z,98455.23
2019-05-07T14:04:12.751Z,98450.26
2019-05-07T14:06:42.676Z,98449.92
2019-05-07T14:09:11.745Z,98449.06
2019-05-07T14:11:39.260Z,98441.56
2019-05-07T14:14:06.755Z,98444.16
2019-05-07T14:16:34.264Z,98448.90
2019-05-07T14:19:04.214Z,98447.09
2019-05-07T14:21:32.489Z,98450.61
2019-05-07T14:24:00.090Z,98439.56
2019-05-07T14:26:27.673Z,98435.61
2019-05-07T14:28:55.199Z,98437.60
2019-05-07T14:31:22.752Z,98428.73
2019-05-07T14:33:53.904Z,98434.39
2019-05-07T14:36:32.122Z,98433.09
2019-05-07T14:38:59.686Z,98434.73
2019-05-07T14:41:27.180Z,98426.80
2019-05-07T14:44:08.615Z,98423.13
2019-05-07T14:46:49.754Z,98419.00
2019-05-07T14:49:05.344Z,98417.79
2019-05-07T14:51:32.842Z,98419.88
2019-05-07T14:54:01.796Z,98416.10
2019-05-07T14:56:29.415Z,98419.87
2019-05-07T14:58:56.948Z,98420.31
2019-05-07T15:01:24.781Z,98417.75
2019-05-07T15:03:52.295Z,98418.95
2019-05-07T15:06:21.771Z,98417.52
2019-05-07T15:08:49.023Z,98420.84
2019-05-07T15:11:16.521Z,98421.88
2019-05-07T15:13:44.871Z,98416.56
2019-05-07T15:16:12.366Z,98424.64
2019-05-07T15:18:42.587Z,98422.09
2019-05-07T15:21:12.221Z,98419.16
2019-05-07T15:23:42.455Z,98413.96
2019-05-07T15:26:09.887Z,98417.67
2019-05-07T15:28:39.073Z,98416.39
2019-05-07T15:31:12.214Z,98411.55
2019-05-07T15:33:41.750Z,98407.99
2019-05-07T15:36:09.084Z,98408.36
2019-05-07T15:38:36.618Z,98403.54
2019-05-07T15:41:04.283Z,98408.70
2019-05-07T15:43:32.346Z,98408.70
2019-05-07T15:46:02.026Z,98401.20
2019-05-07T15:48:29.474Z,98402.25
2019-05-07T15:50:56.974Z,98402.08
2019-05-07T15:53:38.117Z,98393.58
2019-05-07T15:56:06.389Z,98390.90
2019-05-07T15:58:33.921Z,98385.30
2019-05-07T16:01:02.212Z,98384.05
2019-05-07T16:03:34.353Z,98383.83
2019-05-07T16:06:03.848Z,98386.34
2019-05-07T16:08:33.152Z,98376.27
2019-05-07T16:11:01.592Z,98383.16
2019-05-07T16:13:32.751Z,98380.79
2019-05-07T16:16:02.257Z,98378.28
2019-05-07T16:18:51.888Z,98379.00
2019-05-07T16:21:19.291Z,98374.16
2019-05-07T16:23:46.785Z,98380.02
2019-05-07T16:26:14.468Z,98371.40
2019-05-07T16:28:41.964Z,98378.80
2019-05-07T16:31:09.724Z,98372.94
2019-05-07T16:33:37.216Z,98370.42
2019-05-07T16:36:04.724Z,98371.06
2019-05-07T16:38:32.813Z,98368.63
2019-05-07T16:41:01.013Z,98361.80
2019-05-07T16:43:28.508Z,98364.42
2019-05-07T16:45:56.020Z,98360.28
2019-05-07T16:48:23.508Z,98361.21
2019-05-07T16:50:52.274Z,98356.49
2019-05-07T16:53:27.467Z,98356.20
2019-05-07T16:55:49.219Z,98349.00
2019-05-07T16:58:35.023Z,98347.73
2019-05-07T17:01:07.217Z,98345.13
2019-05-07T17:03:37.273Z,98342.82
2019-05-07T17:06:05.448Z,98346.80
2019-05-07T17:08:34.594Z,98347.95
2019-05-07T17:11:03.106Z,98347.00
2019-05-07T17:13:31.896Z,98346.70
2019-05-07T17:16:03.363Z,98344.59
2019-05-07T17:18:32.622Z,98342.84
2019-05-07T17:21:02.070Z,98346.57
2019-05-07T17:23:41.330Z,98341.33
2019-05-07T17:26:01.991Z,98336.06
2019-05-07T17:28:31.771Z,98350.66
2019-05-07T17:30:59.490Z,98334.81
2019-05-07T17:33:26.997Z,98331.92
2019-05-07T17:35:54.501Z,98335.67
2019-05-07T17:38:23.017Z,98338.71
2019-05-07T17:40:52.201Z,98330.22
2019-05-07T17:43:21.767Z,98340.12
2019-05-07T17:45:52.065Z,98338.95
2019-05-07T17:48:19.124Z,98341.03
2019-05-07T17:50:48.272Z,98338.31
2019-05-07T17:53:15.763Z,98343.42
2019-05-07T17:55:43.360Z,98338.41
2019-05-07T17:58:12.696Z,98340.37
2019-05-07T18:00:42.132Z,98338.05
2019-05-07T18:03:17.332Z,98330.48
2019-05-07T18:05:44.838Z,98329.91
2019-05-07T18:08:13.000Z,98334.70
2019-05-07T18:10:42.433Z,98326.48
2019-05-07T18:13:11.852Z,98322.58
2019-05-07T18:15:39.225Z,98325.83
2019-05-07T18:18:08.372Z,98314.26
2019-05-07T18:20:35.868Z,98327.08
2019-05-07T18:23:03.377Z,98324.25
2019-05-07T18:25:32.444Z,98318.88
2019-05-07T18:28:01.859Z,98314.38
2019-05-07T18:30:29.726Z,98319.95
2019-05-07T18:32:58.859Z,98315.11
2019-05-07T18:35:26.516Z,98311.63
2019-05-07T18:37:54.148Z,98316.62
2019-05-07T18:40:22.130Z,98311.02
2019-05-07T18:42:52.268Z,98314.52
2019-05-07T18:45:19.379Z,98311.27
2019-05-07T18:47:47.071Z,98315.67
2019-05-07T18:50:14.560Z,98314.42
2019-05-07T18:52:42.456Z,98314.69
2019-05-07T18:55:11.979Z,98315.14
2019-05-07T18:57:39.736Z,98315.52
2019-05-07T19:00:08.768Z,98305.57
2019-05-07T19:02:36.269Z,98304.44
2019-05-07T19:05:04.331Z,98310.59
2019-05-07T19:07:32.449Z,98302.98
2019-05-07T19:10:01.988Z,98308.66
2019-05-07T19:12:32.734Z,98310.44
2019-05-07T19:15:02.739Z,98315.58
2019-05-07T19:17:29.594Z,98312.95
2019-05-07T19:19:57.083Z,98307.02
2019-05-07T19:22:24.588Z,98307.52
2019-05-07T19:24:52.665Z,98309.25
2019-05-07T19:27:22.027Z,98309.59
2019-05-07T19:29:49.641Z,98310.30
2019-05-07T19:32:17.245Z,98311.52
2019-05-07T19:34:44.815Z,98308.02
2019-05-07T19:37:12.303Z,98313.84
2019-05-07T19:39:39.804Z,98309.86
2019-05-07T19:42:07.469Z,98312.94
2019-05-07T19:44:35.740Z,98307.83
2019-05-07T19:47:03.238Z,98312.94
2019-05-07T19:49:32.470Z,98314.48
2019-05-07T19:52:01.724Z,98306.77
2019-05-07T19:54:29.385Z,98312.49
2019-05-07T19:56:56.876Z,98306.71
2019-05-07T19:59:24.396Z,98306.91
2019-05-07T20:01:56.460Z,98306.59
2019-05-07T20:04:23.968Z,98299.83
2019-05-07T20:06:52.287Z,98303.53
2019-05-07T20:09:21.575Z,98303.88
2019-05-07T20:11:52.269Z,98299.55
2019-05-07T20:14:19.500Z,98292.47
2019-05-07T20:16:46.992Z,98289.80
2019-05-07T20:19:14.485Z,98299.27
2019-05-07T20:21:41.972Z,98289.03
2019-05-07T20:24:09.471Z,98287.88
2019-05-07T20:26:36.969Z,98287.88
2019-05-07T20:29:04.644Z,98286.53
2019-05-07T20:31:33.489Z,98287.22
2019-05-07T20:34:02.322Z,98286.19
2019-05-07T20:36:30.071Z,98283.36
2019-05-07T20:38:57.656Z,98287.33
2019-05-07T20:41:25.200Z,98285.10
2019-05-07T20:43:53.046Z,98283.06
2019-05-07T20:46:21.204Z,98278.35
2019-05-07T20:48:48.716Z,98275.48
2019-05-07T20:51:16.213Z,98279.33
2019-05-07T20:53:52.415Z,98267.18
2019-05-07T20:56:22.524Z,98276.30
2019-05-07T20:58:52.052Z,98266.53
2019-05-07T21:01:21.824Z,98270.78
2019-05-07T21:03:48.700Z,98265.26
2019-05-07T21:06:16.848Z,98267.42
2019-05-07T21:08:44.345Z,98267.20
2019-05-07T21:11:12.547Z,98266.53
2019-05-07T21:13:41.980Z,98251.34
2019-05-07T21:16:12.360Z,98253.56
2019-05-07T21:18:41.942Z,98253.20
2019-05-07T21:21:08.933Z,98254.80
2019-05-07T21:23:37.692Z,98239.23
2019-05-07T21:26:05.185Z,98242.85
2019-05-07T21:28:32.681Z,98236.83
2019-05-07T21:31:02.574Z,98231.62
2019-05-07T21:33:29.489Z,98231.48
2019-05-07T21:35:56.994Z,98229.10
2019-05-07T21:38:24.482Z,98224.92
2019-05-07T21:40:52.652Z,98222.25
2019-05-07T21:43:22.226Z,98214.83
2019-05-07T21:45:49.548Z,98216.83
2019-05-07T21:48:17.035Z,98202.34
2019-05-07T21:50:44.535Z,98210.71
2019-05-07T21:53:22.977Z,98203.42
2019-05-07T21:56:01.846Z,98200.09
2019-05-07T21:58:26.825Z,98192.08
2019-05-07T22:01:12.641Z,98193.91
2019-05-07T22:03:43.231Z,98191.08
2019-05-07T22:06:12.850Z,98183.08
2019-05-07T22:08:40.056Z,98177.72
2019-05-07T22:11:08.280Z,98180.75
2019-05-07T22:13:36.446Z,98179.38
2019-05-07T22:16:03.948Z,98175.03
2019-05-07T22:18:33.619Z,98175.39
2019-05-07T22:21:02.825Z,98183.60
2019-05-07T22:23:32.204Z,98178.55
2019-05-07T22:26:15.593Z,98180.96
2019-05-07T22:28:28.423Z,98174.56
2019-05-07T22:30:57.568Z,98177.61
2019-05-07T22:33:32.648Z,98179.66
2019-05-07T22:36:01.839Z,98179.13
2019-05-07T22:38:29.427Z,98177.77
2019-05-07T22:40:56.924Z,98164.84
2019-05-07T22:43:24.411Z,98155.61
2019-05-07T22:45:51.933Z,98154.78
2019-05-07T22:48:50.105Z,98151.89
2019-05-07T22:51:17.623Z,98149.57
2019-05-07T22:53:45.111Z,98145.55
2019-05-07T22:56:14.169Z,98140.48
2019-05-07T22:58:49.136Z,98139.33
2019-05-07T23:01:19.048Z,98139.82
2019-05-07T23:03:46.613Z,98141.19
2019-05-07T23:06:14.109Z,98134.80
2019-05-07T23:08:42.430Z,98124.20
2019-05-07T23:14:19.398Z,98120.02
2019-05-07T23:16:47.200Z,98113.12
2019-05-07T23:19:14.688Z,98106.54
2019-05-07T23:21:42.606Z,98107.38
2019-05-07T23:24:10.164Z,98102.52
2019-05-07T23:26:48.246Z,98105.50
2019-05-07T23:29:07.728Z,98097.80
2019-05-07T23:31:35.236Z,98086.38
2019-05-07T23:34:03.398Z,98085.77
2019-05-07T23:36:31.168Z,98091.50
2019-05-07T23:38:58.657Z,98082.94
2019-05-07T23:41:33.977Z,98082.80
2019-05-07T23:44:12.682Z,98073.56
2019-05-07T23:46:42.591Z,98068.69
2019-05-07T23:49:09.637Z,98065.00
2019-05-07T23:51:37.136Z,98069.35
2019-05-07T23:54:04.696Z,98057.59
2019-05-07T23:56:32.877Z,98058.77
2019-05-07T23:59:00.665Z,98056.08
